Granville, Illinois
Current Conditions -  °F | °C
As of 12:35 PM on Sunday 21 Dec 2014 (Local Time) from KVYS Reporting Station
Overcast Overcast  
Wind Chill: 30°   Ceiling: 2700
Heat Index: 38°   Visibility: 7mi
Dew Point: 33°   Wind: 14mph
Humidity: 81%   Direction: 170°S
Pressure: 30.1"   Gusts: NA
Location:  41.26°N, 89.23°W
Report Text: KVYS 211835Z AUTO 17012KT 7SM OVC027 04/01 A3010 RMK AO2 T00350005
Loading
Personal Weather Stations






























Interactive Weather Map New forecast layout! Learn more

10-Day Weather Forecast

Advertisements
Track Severe Weather on mobile